Sea Thames — V2BV1 — position and weather

sailwx.info

Track history (hours):
 
Tides and Currents Weather Stations Pressure Air Temp Water Temp Dewpoint Dewpoint Depression Visibility Wind Speed Wind Dir Waves Ship Positions

Sea Thames

Last reported at 2017-Nov-20 00:30 UTC. Time now 2017-Nov-20 01:48 UTC.
Position N 43°20' W 003°02'.

Length 87 m; draft 3.3 m.

Type: Ship. MMSI: 304933000.

Date/timePositionNaut miles runAvg speedWind from/ knotsBaromVisibWave heightAir tempDewpointWater temp
2017-Nov-20 00:30N 43°20' W 003°02'0 0.0
2017-Nov-19 23:59N 43°20' W 003°02'0 0.0
2017-Nov-19 23:29N 43°20' W 003°02'0 0.0
2017-Nov-19 23:00N 43°20' W 003°02'0 0.0
2017-Nov-19 22:30N 43°20' W 003°02'0 0.0
2017-Nov-19 22:00N 43°20' W 003°02'0 0.0
2017-Nov-19 21:30N 43°20' W 003°02'0 0.0
2017-Nov-19 21:00N 43°20' W 003°02'0 0.0
2017-Nov-19 20:30N 43°20' W 003°02'0 0.0
2017-Nov-19 20:00N 43°20' W 003°02'0 0.0
2017-Nov-19 19:30N 43°20' W 003°02'0 0.0
2017-Nov-19 19:00N 43°20' W 003°02'0 0.0
2017-Nov-19 18:30N 43°20' W 003°02'0 0.0
2017-Nov-19 18:00N 43°20' W 003°02'0 0.0
2017-Nov-19 17:30N 43°20' W 003°02'0 0.0
2017-Nov-19 17:00N 43°20' W 003°02'0 0.0
2017-Nov-19 16:30N 43°20' W 003°02'0 0.0
2017-Nov-19 16:00N 43°20' W 003°02'0 0.0
2017-Nov-19 15:30N 43°20' W 003°02'0 0.0
2017-Nov-19 15:00N 43°20' W 003°02'0 0.0
2017-Nov-19 14:30N 43°20' W 003°02'0 0.0
2017-Nov-19 14:00N 43°20' W 003°02'0 0.0
2017-Nov-19 13:30N 43°20' W 003°02'0 0.0
2017-Nov-19 13:00N 43°20' W 003°02'0 0.0
2017-Nov-19 12:30N 43°20' W 003°02'0 0.0
2017-Nov-19 12:00N 43°20' W 003°02'0 0.0
2017-Nov-19 11:30N 43°20' W 003°02'0 0.0
2017-Nov-19 11:00N 43°20' W 003°02'0 0.0
2017-Nov-19 10:30N 43°20' W 003°02'0 0.0
2017-Nov-19 10:00N 43°20' W 003°02'1 1.1
2017-Nov-19 09:30N 43°21' W 003°02'1 2.1
2017-Nov-19 09:00N 43°21' W 003°03'0 0.0
2017-Nov-19 08:30N 43°21' W 003°03'0 0.0
2017-Nov-19 08:00N 43°21' W 003°03'0 0.6
2017-Nov-19 07:30N 43°21' W 003°03'2 4.0
2017-Nov-19 07:00N 43°23' W 003°04'3 6.2
2017-Nov-19 06:30N 43°25' W 003°07'3 6.8
2017-Nov-19 06:00N 43°29' W 003°08'4 7.1
2017-Nov-19 05:30N 43°32' W 003°10'4 7.2
2017-Nov-19 05:00N 43°35' W 003°11'4 7.2
2017-Nov-19 04:30N 43°39' W 003°13'4 7.2
2017-Nov-19 04:00N 43°42' W 003°15'4 7.3
2017-Nov-19 03:30N 43°46' W 003°16'4 7.4
2017-Nov-19 02:58N 43°49' W 003°18'4 7.2
2017-Nov-19 02:23N 43°53' W 003°20'3 7.2
2017-Nov-19 02:00N 43°56' W 003°21'200 7.6
2017-Nov-17 23:53N 47°04' W 004°55'4 7.3
2017-Nov-17 23:24N 47°08' W 004°57'38 7.4
2017-Nov-17 18:19N 47°43' W 005°15'3 9.2
2017-Nov-17 17:59N 47°46' W 005°17'5 9.2
2017-Nov-17 17:24N 47°51' W 005°20'4 8.9
2017-Nov-17 17:00N 47°55' W 005°21'4 8.6
2017-Nov-17 16:30N 47°59' W 005°23'5 8.2
2017-Nov-17 15:57N 48°03' W 005°25'3 7.7
2017-Nov-17 15:30N 48°07' W 005°26'4 7.3
2017-Nov-17 14:57N 48°11' W 005°26'3 6.6
2017-Nov-17 14:28N 48°14' W 005°25'4 6.6
2017-Nov-17 13:53N 48°18' W 005°26'3 6.3
2017-Nov-17 13:29N 48°20' W 005°25'3 6.3
2017-Nov-17 12:57N 48°24' W 005°25'3 6.5
2017-Nov-17 12:29N 48°26' W 005°26'3 6.7
2017-Nov-17 12:00N 48°30' W 005°26'4 7.3
2017-Nov-17 11:30N 48°33' W 005°23'4 8.1
2017-Nov-17 10:59N 48°36' W 005°18'5 8.8
2017-Nov-17 10:28N 48°39' W 005°13'4 9.4
2017-Nov-17 09:59N 48°42' W 005°08'6 9.8
2017-Nov-17 09:21N 48°46' W 005°01'3 9.9
2017-Nov-17 09:00N 48°48' W 004°57'100 9.0
2017-Nov-16 21:54N 49°55' W 003°02'4 9.1
2017-Nov-16 21:30N 49°57' W 002°57'5 9.3
2017-Nov-16 21:00N 49°58' W 002°50'5 8.6
2017-Nov-16 20:22N 49°60' W 002°42'28 6.8
2017-Nov-16 16:21N 50°07' W 002°01'7010.3
2017-Nov-16 09:32N 50°25' W 000°15'0 8.5
2017-Nov-16 09:30N 50°25' W 000°15'4 8.2
2017-Nov-16 09:00N 50°26' W 000°09'4 7.7
2017-Nov-16 08:30N 50°28' W 000°03'4 7.2
2017-Nov-16 08:00N 50°28' E 000°03'4 6.9
2017-Nov-16 07:30N 50°29' E 000°08'3 6.9
2017-Nov-16 07:00N 50°30' E 000°13'8 7.4
2017-Nov-16 05:51N 50°32' E 000°26'4 8.3
2017-Nov-16 05:25N 50°33' E 000°32'4 8.9
2017-Nov-16 05:00N 50°35' E 000°37'5 9.5
2017-Nov-16 04:30N 50°38' E 000°43'510.1
2017-Nov-16 04:00N 50°41' E 000°49'510.3
2017-Nov-16 03:30N 50°44' E 000°55'21 9.8
2017-Nov-16 01:22N 50°57' E 001°21'3 8.6
2017-Nov-16 01:00N 50°59' E 001°25'4 7.9
2017-Nov-16 00:30N 51°02' E 001°29'3 7.0
2017-Nov-16 00:00N 51°05' E 001°33'3 6.3
2017-Nov-15 23:30N 51°07' E 001°36'3 6.2
2017-Nov-15 23:00N 51°09' E 001°40'3 6.4
2017-Nov-15 22:30N 51°11' E 001°43'3 6.8
2017-Nov-15 22:00N 51°14' E 001°47'4 7.2
2017-Nov-15 21:30N 51°16' E 001°51'4 8.1
2017-Nov-15 21:00N 51°20' E 001°54'4 9.0
2017-Nov-15 20:30N 51°24' E 001°58'5 9.8
2017-Nov-15 20:00N 51°28' E 002°02'73 8.8
2017-Nov-15 11:40N 52°03' E 003°45'1 7.0
2017-Nov-15 11:30N 52°03' E 003°47'4 7.8
2017-Nov-15 11:00N 52°04' E 003°54'4 8.3
2017-Nov-15 10:30N 52°01' E 003°59'5 9.6
2017-Nov-15 10:00N 51°59' E 004°06'510.2
2017-Nov-15 09:31N 51°56' E 004°13'5 9.6
2017-Nov-15 09:00N 51°54' E 004°20'4 8.4
2017-Nov-15 08:30N 51°54' E 004°26'1 1.2
2017-Nov-15 07:55N 51°54' E 004°28'0 0.0
2017-Nov-15 07:25N 51°54' E 004°28'0 0.0
2017-Nov-15 06:53N 51°54' E 004°28'0 0.0
2017-Nov-15 06:29N 51°54' E 004°28'0 0.0
2017-Nov-15 06:00N 51°54' E 004°28'0 0.0
2017-Nov-15 05:26N 51°54' E 004°28'0 0.0
2017-Nov-15 04:54N 51°54' E 004°28'0 0.0
2017-Nov-15 04:30N 51°54' E 004°28'0 0.0
2017-Nov-15 03:55N 51°54' E 004°28'0 0.0
2017-Nov-15 03:24N 51°54' E 004°28'0 0.0
2017-Nov-15 02:51N 51°54' E 004°28'0 0.0
2017-Nov-15 02:28N 51°54' E 004°28'0 0.0
2017-Nov-15 01:56N 51°54' E 004°28'0 0.0
2017-Nov-15 01:26N 51°54' E 004°28'0 0.0
2017-Nov-15 00:59N 51°54' E 004°28'0 0.6
2017-Nov-15 00:30N 51°54' E 004°28'2 4.8
2017-Nov-15 00:00N 51°54' E 004°32'1 3.0
2017-Nov-14 23:30N 51°54' E 004°34'2 4.6
2017-Nov-14 23:00N 51°53' E 004°38'3 6.3
2017-Nov-14 22:31N 51°50' E 004°40'3 6.1
2017-Nov-14 22:01N 51°49' E 004°45'5 9.6
2017-Nov-14 21:30N 51°49' E 004°53'5 9.4
2017-Nov-14 21:00N 51°49' E 005°00'5 9.2
2017-Nov-14 20:30N 51°49' E 005°08'5 9.6
2017-Nov-14 20:00N 51°49' E 005°16'4 8.3
2017-Nov-14 19:30N 51°49' E 005°22'11 8.9
2017-Nov-14 18:14N 51°54' E 005°39'7 9.1
2017-Nov-14 17:28N 51°52' E 005°50'4 8.2
2017-Nov-14 16:57N 51°52' E 005°56'3 7.0
2017-Nov-14 16:30N 51°53' E 006°01'510.1
2017-Nov-14 16:00N 51°51' E 006°09'15 8.6
2017-Nov-14 14:13N 51°41' E 006°28'2 8.8
2017-Nov-14 14:00N 51°40' E 006°31'4 7.7
2017-Nov-14 13:31N 51°38' E 006°36'4 8.2
2017-Nov-14 13:00N 51°34' E 006°37'3 5.4
2017-Nov-14 12:30N 51°32' E 006°41'4 7.3
2017-Nov-14 12:01N 51°29' E 006°41'4 7.1
2017-Nov-14 11:29N 51°26' E 006°44'0 0.9
2017-Nov-14 10:58N 51°26' E 006°44'0 0.1
2017-Nov-14 10:30N 51°26' E 006°44'0 0.0
2017-Nov-14 10:00N 51°26' E 006°44'0 0.0
2017-Nov-14 09:24N 51°26' E 006°44'0 0.0
2017-Nov-14 08:59N 51°26' E 006°44'0 0.0
2017-Nov-14 08:29N 51°26' E 006°44'0 0.0
2017-Nov-14 07:55N 51°26' E 006°44'0 0.0
2017-Nov-14 07:23N 51°26' E 006°44'0 0.0
2017-Nov-14 07:00N 51°26' E 006°44'0 0.0
2017-Nov-14 06:29N 51°26' E 006°44'0 0.0
2017-Nov-14 05:59N 51°26' E 006°44'0 0.0
2017-Nov-14 05:28N 51°26' E 006°44'0 0.0
2017-Nov-14 04:59N 51°26' E 006°44'0 0.0
2017-Nov-14 04:29N 51°26' E 006°44'0 0.0
2017-Nov-14 04:00N 51°26' E 006°44'0 0.0
2017-Nov-14 03:30N 51°26' E 006°44'0 0.0
2017-Nov-14 03:00N 51°26' E 006°44'0 0.0
2017-Nov-14 02:29N 51°26' E 006°44'0 0.0
2017-Nov-14 01:56N 51°26' E 006°44'0 0.0
2017-Nov-14 01:23N 51°26' E 006°44'0 0.0
2017-Nov-14 00:58N 51°26' E 006°44'0 0.0
2017-Nov-14 00:29N 51°26' E 006°44'0 0.0
2017-Nov-13 23:53N 51°26' E 006°44'0 0.0
2017-Nov-13 23:29N 51°26' E 006°44'0 0.0
2017-Nov-13 22:55N 51°26' E 006°44'0 0.0
2017-Nov-13 22:22N 51°26' E 006°44'0 0.0
2017-Nov-13 21:48N 51°26' E 006°44'4 0.2
2017-Nov-13 02:00N 51°29' E 006°41'2 3.7
2017-Nov-13 01:31N 51°31' E 006°43'2 4.7
2017-Nov-13 01:00N 51°33' E 006°41'2 4.1
2017-Nov-13 00:30N 51°35' E 006°40'2 4.6
2017-Nov-13 00:00N 51°34' E 006°37'2 4.8
2017-Nov-12 23:30N 51°36' E 006°36'2 4.6
2017-Nov-12 23:01N 51°39' E 006°36'2 4.3
2017-Nov-12 22:30N 51°39' E 006°33'3 5.2
2017-Nov-12 21:59N 51°40' E 006°29'7 4.2
2017-Nov-12 20:15N 51°45' E 006°21'1 5.5
2017-Nov-12 19:59N 51°47' E 006°19'3 5.6
2017-Nov-12 19:25N 51°49' E 006°16'2 5.5
2017-Nov-12 19:00N 51°50' E 006°13'3 5.2
2017-Nov-12 18:30N 51°51' E 006°09'3 5.7
2017-Nov-12 18:00N 51°52' E 006°05'3 6.2
2017-Nov-12 17:30N 51°53' E 006°00'2 4.5
2017-Nov-12 17:00N 51°52' E 005°57'2 4.7
2017-Nov-12 16:30N 51°52' E 005°53'2 4.0
2017-Nov-12 15:59N 51°52' E 005°50'3 5.7
2017-Nov-12 15:31N 51°53' E 005°46'3 5.8
2017-Nov-12 15:00N 51°54' E 005°41'3 5.8
2017-Nov-12 14:27N 51°54' E 005°36'3 5.7
2017-Nov-12 13:59N 51°54' E 005°32'3 5.8
2017-Nov-12 13:31N 51°53' E 005°27'3 5.8
2017-Nov-12 13:00N 51°51' E 005°25'3 6.2
2017-Nov-12 12:30N 51°48' E 005°22'3 5.2
2017-Nov-12 12:00N 51°49' E 005°18'3 6.4
2017-Nov-12 11:30N 51°49' E 005°13'3 6.6
2017-Nov-12 11:00N 51°49' E 005°08'3 6.2
2017-Nov-12 10:30N 51°49' E 005°03'4 7.4
2017-Nov-12 10:00N 51°50' E 004°57'4 8.1
2017-Nov-12 09:30N 51°49' E 004°50'4 8.3
2017-Nov-12 09:00N 51°49' E 004°44'3 6.3
2017-Nov-12 08:30N 51°51' E 004°39'4 7.9
2017-Nov-12 08:01N 51°54' E 004°35'4 7.2
2017-Nov-12 07:31N 51°55' E 004°29'1 2.6
2017-Nov-12 07:00N 51°54' E 004°28'0 0.0
2017-Nov-12 06:30N 51°54' E 004°28'0 0.0
2017-Nov-12 06:00N 51°54' E 004°28'0 0.0
2017-Nov-12 05:30N 51°54' E 004°28'0 0.0
2017-Nov-12 05:00N 51°54' E 004°28'0 0.0
2017-Nov-12 04:30N 51°54' E 004°28'0 0.0
2017-Nov-12 04:00N 51°54' E 004°28'0 0.0
2017-Nov-12 03:30N 51°54' E 004°28'0 0.0
2017-Nov-12 03:00N 51°54' E 004°28'0 0.0
2017-Nov-12 02:30N 51°54' E 004°28'0 0.0
2017-Nov-12 02:00N 51°54' E 004°28'0 0.0
2017-Nov-12 01:30N 51°54' E 004°28'3 5.2
2017-Nov-12 01:00N 51°54' E 004°23'4 7.2
2017-Nov-12 00:30N 51°54' E 004°18'3 6.4
2017-Nov-12 00:00N 51°56' E 004°13'4 7.4
2017-Nov-11 23:30N 51°58' E 004°09'4 8.1
2017-Nov-11 23:00N 51°59' E 004°02'4 8.0
2017-Nov-11 22:30N 52°00' E 003°56'4 8.7
2017-Nov-11 22:00N 52°01' E 003°49'82 9.2
2017-Nov-11 13:06N 52°52' E 002°04'410.3
2017-Nov-11 12:43N 52°54' E 001°58'210.5
2017-Nov-11 12:30N 52°55' E 001°55'510.4
2017-Nov-11 12:00N 52°58' E 001°47'510.2
2017-Nov-11 11:30N 53°00' E 001°40'5 9.6
2017-Nov-11 11:00N 53°02' E 001°33'5 9.2
2017-Nov-11 10:30N 53°05' E 001°27'4 8.9
2017-Nov-11 10:00N 53°08' E 001°21'4 8.8
2017-Nov-11 09:30N 53°11' E 001°16'53 8.0
2017-Nov-11 02:53N 53°36' W 000°03'411.2
2017-Nov-11 02:30N 53°38' W 000°09'611.2
2017-Nov-11 02:00N 53°43' W 000°14'510.3
2017-Nov-11 01:30N 53°42' W 000°23'  
Track history (hours):
 
Tides and Currents Weather Stations Pressure Air Temp Water Temp Dewpoint Dewpoint Depression Visibility Wind Speed Wind Dir Waves Ship Positions

Sea Thames

Last reported at 2017-Nov-20 00:30 UTC. Time now 2017-Nov-20 01:48 UTC.
Position N 43°20' W 003°02'.

Length 87 m; draft 3.3 m.

Type: Ship. MMSI: 304933000.

Date/timePositionNaut miles runAvg speedWind from/ knotsBaromVisibWave heightAir tempDewpointWater temp
2017-Nov-20 00:30N 43°20' W 003°02'0 0.0
2017-Nov-19 23:59N 43°20' W 003°02'0 0.0
2017-Nov-19 23:29N 43°20' W 003°02'0 0.0
2017-Nov-19 23:00N 43°20' W 003°02'0 0.0
2017-Nov-19 22:30N 43°20' W 003°02'0 0.0
2017-Nov-19 22:00N 43°20' W 003°02'0 0.0
2017-Nov-19 21:30N 43°20' W 003°02'0 0.0
2017-Nov-19 21:00N 43°20' W 003°02'0 0.0
2017-Nov-19 20:30N 43°20' W 003°02'0 0.0
2017-Nov-19 20:00N 43°20' W 003°02'0 0.0
2017-Nov-19 19:30N 43°20' W 003°02'0 0.0
2017-Nov-19 19:00N 43°20' W 003°02'0 0.0
2017-Nov-19 18:30N 43°20' W 003°02'0 0.0
2017-Nov-19 18:00N 43°20' W 003°02'0 0.0
2017-Nov-19 17:30N 43°20' W 003°02'0 0.0
2017-Nov-19 17:00N 43°20' W 003°02'0 0.0
2017-Nov-19 16:30N 43°20' W 003°02'0 0.0
2017-Nov-19 16:00N 43°20' W 003°02'0 0.0
2017-Nov-19 15:30N 43°20' W 003°02'0 0.0
2017-Nov-19 15:00N 43°20' W 003°02'0 0.0
2017-Nov-19 14:30N 43°20' W 003°02'0 0.0
2017-Nov-19 14:00N 43°20' W 003°02'0 0.0
2017-Nov-19 13:30N 43°20' W 003°02'0 0.0
2017-Nov-19 13:00N 43°20' W 003°02'0 0.0
2017-Nov-19 12:30N 43°20' W 003°02'0 0.0
2017-Nov-19 12:00N 43°20' W 003°02'0 0.0
2017-Nov-19 11:30N 43°20' W 003°02'0 0.0
2017-Nov-19 11:00N 43°20' W 003°02'0 0.0
2017-Nov-19 10:30N 43°20' W 003°02'0 0.0
2017-Nov-19 10:00N 43°20' W 003°02'1 1.1
2017-Nov-19 09:30N 43°21' W 003°02'1 2.1
2017-Nov-19 09:00N 43°21' W 003°03'0 0.0
2017-Nov-19 08:30N 43°21' W 003°03'0 0.0
2017-Nov-19 08:00N 43°21' W 003°03'0 0.6
2017-Nov-19 07:30N 43°21' W 003°03'2 4.0
2017-Nov-19 07:00N 43°23' W 003°04'3 6.2
2017-Nov-19 06:30N 43°25' W 003°07'3 6.8
2017-Nov-19 06:00N 43°29' W 003°08'4 7.1
2017-Nov-19 05:30N 43°32' W 003°10'4 7.2
2017-Nov-19 05:00N 43°35' W 003°11'4 7.2
2017-Nov-19 04:30N 43°39' W 003°13'4 7.2
2017-Nov-19 04:00N 43°42' W 003°15'4 7.3
2017-Nov-19 03:30N 43°46' W 003°16'4 7.4
2017-Nov-19 02:58N 43°49' W 003°18'4 7.2
2017-Nov-19 02:23N 43°53' W 003°20'3 7.2
2017-Nov-19 02:00N 43°56' W 003°21'200 7.6
2017-Nov-17 23:53N 47°04' W 004°55'4 7.3
2017-Nov-17 23:24N 47°08' W 004°57'38 7.4
2017-Nov-17 18:19N 47°43' W 005°15'3 9.2
2017-Nov-17 17:59N 47°46' W 005°17'5 9.2
2017-Nov-17 17:24N 47°51' W 005°20'4 8.9
2017-Nov-17 17:00N 47°55' W 005°21'4 8.6
2017-Nov-17 16:30N 47°59' W 005°23'5 8.2
2017-Nov-17 15:57N 48°03' W 005°25'3 7.7
2017-Nov-17 15:30N 48°07' W 005°26'4 7.3
2017-Nov-17 14:57N 48°11' W 005°26'3 6.6
2017-Nov-17 14:28N 48°14' W 005°25'4 6.6
2017-Nov-17 13:53N 48°18' W 005°26'3 6.3
2017-Nov-17 13:29N 48°20' W 005°25'3 6.3
2017-Nov-17 12:57N 48°24' W 005°25'3 6.5
2017-Nov-17 12:29N 48°26' W 005°26'3 6.7
2017-Nov-17 12:00N 48°30' W 005°26'4 7.3
2017-Nov-17 11:30N 48°33' W 005°23'4 8.1
2017-Nov-17 10:59N 48°36' W 005°18'5 8.8
2017-Nov-17 10:28N 48°39' W 005°13'4 9.4
2017-Nov-17 09:59N 48°42' W 005°08'6 9.8
2017-Nov-17 09:21N 48°46' W 005°01'3 9.9
2017-Nov-17 09:00N 48°48' W 004°57'100 9.0
2017-Nov-16 21:54N 49°55' W 003°02'4 9.1
2017-Nov-16 21:30N 49°57' W 002°57'5 9.3
2017-Nov-16 21:00N 49°58' W 002°50'5 8.6
2017-Nov-16 20:22N 49°60' W 002°42'28 6.8
2017-Nov-16 16:21N 50°07' W 002°01'7010.3
2017-Nov-16 09:32N 50°25' W 000°15'0 8.5
2017-Nov-16 09:30N 50°25' W 000°15'4 8.2
2017-Nov-16 09:00N 50°26' W 000°09'4 7.7
2017-Nov-16 08:30N 50°28' W 000°03'4 7.2
2017-Nov-16 08:00N 50°28' E 000°03'4 6.9
2017-Nov-16 07:30N 50°29' E 000°08'3 6.9
2017-Nov-16 07:00N 50°30' E 000°13'8 7.4
2017-Nov-16 05:51N 50°32' E 000°26'4 8.3
2017-Nov-16 05:25N 50°33' E 000°32'4 8.9
2017-Nov-16 05:00N 50°35' E 000°37'5 9.5
2017-Nov-16 04:30N 50°38' E 000°43'510.1
2017-Nov-16 04:00N 50°41' E 000°49'510.3
2017-Nov-16 03:30N 50°44' E 000°55'21 9.8
2017-Nov-16 01:22N 50°57' E 001°21'3 8.6
2017-Nov-16 01:00N 50°59' E 001°25'4 7.9
2017-Nov-16 00:30N 51°02' E 001°29'3 7.0
2017-Nov-16 00:00N 51°05' E 001°33'3 6.3
2017-Nov-15 23:30N 51°07' E 001°36'3 6.2
2017-Nov-15 23:00N 51°09' E 001°40'3 6.4
2017-Nov-15 22:30N 51°11' E 001°43'3 6.8
2017-Nov-15 22:00N 51°14' E 001°47'4 7.2
2017-Nov-15 21:30N 51°16' E 001°51'4 8.1
2017-Nov-15 21:00N 51°20' E 001°54'4 9.0
2017-Nov-15 20:30N 51°24' E 001°58'5 9.8
2017-Nov-15 20:00N 51°28' E 002°02'73 8.8
2017-Nov-15 11:40N 52°03' E 003°45'1 7.0
2017-Nov-15 11:30N 52°03' E 003°47'4 7.8
2017-Nov-15 11:00N 52°04' E 003°54'4 8.3
2017-Nov-15 10:30N 52°01' E 003°59'5 9.6
2017-Nov-15 10:00N 51°59' E 004°06'510.2
2017-Nov-15 09:31N 51°56' E 004°13'5 9.6
2017-Nov-15 09:00N 51°54' E 004°20'4 8.4
2017-Nov-15 08:30N 51°54' E 004°26'1 1.2
2017-Nov-15 07:55N 51°54' E 004°28'0 0.0
2017-Nov-15 07:25N 51°54' E 004°28'0 0.0
2017-Nov-15 06:53N 51°54' E 004°28'0 0.0
2017-Nov-15 06:29N 51°54' E 004°28'0 0.0
2017-Nov-15 06:00N 51°54' E 004°28'0 0.0
2017-Nov-15 05:26N 51°54' E 004°28'0 0.0
2017-Nov-15 04:54N 51°54' E 004°28'0 0.0
2017-Nov-15 04:30N 51°54' E 004°28'0 0.0
2017-Nov-15 03:55N 51°54' E 004°28'0 0.0
2017-Nov-15 03:24N 51°54' E 004°28'0 0.0
2017-Nov-15 02:51N 51°54' E 004°28'0 0.0
2017-Nov-15 02:28N 51°54' E 004°28'0 0.0
2017-Nov-15 01:56N 51°54' E 004°28'0 0.0
2017-Nov-15 01:26N 51°54' E 004°28'0 0.0
2017-Nov-15 00:59N 51°54' E 004°28'0 0.6
2017-Nov-15 00:30N 51°54' E 004°28'2 4.8
2017-Nov-15 00:00N 51°54' E 004°32'1 3.0
2017-Nov-14 23:30N 51°54' E 004°34'2 4.6
2017-Nov-14 23:00N 51°53' E 004°38'3 6.3
2017-Nov-14 22:31N 51°50' E 004°40'3 6.1
2017-Nov-14 22:01N 51°49' E 004°45'5 9.6
2017-Nov-14 21:30N 51°49' E 004°53'5 9.4
2017-Nov-14 21:00N 51°49' E 005°00'5 9.2
2017-Nov-14 20:30N 51°49' E 005°08'5 9.6
2017-Nov-14 20:00N 51°49' E 005°16'4 8.3
2017-Nov-14 19:30N 51°49' E 005°22'11 8.9
2017-Nov-14 18:14N 51°54' E 005°39'7 9.1
2017-Nov-14 17:28N 51°52' E 005°50'4 8.2
2017-Nov-14 16:57N 51°52' E 005°56'3 7.0
2017-Nov-14 16:30N 51°53' E 006°01'510.1
2017-Nov-14 16:00N 51°51' E 006°09'15 8.6
2017-Nov-14 14:13N 51°41' E 006°28'2 8.8
2017-Nov-14 14:00N 51°40' E 006°31'4 7.7
2017-Nov-14 13:31N 51°38' E 006°36'4 8.2
2017-Nov-14 13:00N 51°34' E 006°37'3 5.4
2017-Nov-14 12:30N 51°32' E 006°41'4 7.3
2017-Nov-14 12:01N 51°29' E 006°41'4 7.1
2017-Nov-14 11:29N 51°26' E 006°44'0 0.9
2017-Nov-14 10:58N 51°26' E 006°44'0 0.1
2017-Nov-14 10:30N 51°26' E 006°44'0 0.0
2017-Nov-14 10:00N 51°26' E 006°44'0 0.0
2017-Nov-14 09:24N 51°26' E 006°44'0 0.0
2017-Nov-14 08:59N 51°26' E 006°44'0 0.0
2017-Nov-14 08:29N 51°26' E 006°44'0 0.0
2017-Nov-14 07:55N 51°26' E 006°44'0 0.0
2017-Nov-14 07:23N 51°26' E 006°44'0 0.0
2017-Nov-14 07:00N 51°26' E 006°44'0 0.0
2017-Nov-14 06:29N 51°26' E 006°44'0 0.0
2017-Nov-14 05:59N 51°26' E 006°44'0 0.0
2017-Nov-14 05:28N 51°26' E 006°44'0 0.0
2017-Nov-14 04:59N 51°26' E 006°44'0 0.0
2017-Nov-14 04:29N 51°26' E 006°44'0 0.0
2017-Nov-14 04:00N 51°26' E 006°44'0 0.0
2017-Nov-14 03:30N 51°26' E 006°44'0 0.0
2017-Nov-14 03:00N 51°26' E 006°44'0 0.0
2017-Nov-14 02:29N 51°26' E 006°44'0 0.0
2017-Nov-14 01:56N 51°26' E 006°44'0 0.0
2017-Nov-14 01:23N 51°26' E 006°44'0 0.0
2017-Nov-14 00:58N 51°26' E 006°44'0 0.0
2017-Nov-14 00:29N 51°26' E 006°44'0 0.0
2017-Nov-13 23:53N 51°26' E 006°44'0 0.0
2017-Nov-13 23:29N 51°26' E 006°44'0 0.0
2017-Nov-13 22:55N 51°26' E 006°44'0 0.0
2017-Nov-13 22:22N 51°26' E 006°44'0 0.0
2017-Nov-13 21:48N 51°26' E 006°44'4 0.2
2017-Nov-13 02:00N 51°29' E 006°41'2 3.7
2017-Nov-13 01:31N 51°31' E 006°43'2 4.7
2017-Nov-13 01:00N 51°33' E 006°41'2 4.1
2017-Nov-13 00:30N 51°35' E 006°40'2 4.6
2017-Nov-13 00:00N 51°34' E 006°37'2 4.8
2017-Nov-12 23:30N 51°36' E 006°36'2 4.6
2017-Nov-12 23:01N 51°39' E 006°36'2 4.3
2017-Nov-12 22:30N 51°39' E 006°33'3 5.2
2017-Nov-12 21:59N 51°40' E 006°29'7 4.2
2017-Nov-12 20:15N 51°45' E 006°21'1 5.5
2017-Nov-12 19:59N 51°47' E 006°19'3 5.6
2017-Nov-12 19:25N 51°49' E 006°16'2 5.5
2017-Nov-12 19:00N 51°50' E 006°13'3 5.2
2017-Nov-12 18:30N 51°51' E 006°09'3 5.7
2017-Nov-12 18:00N 51°52' E 006°05'3 6.2
2017-Nov-12 17:30N 51°53' E 006°00'2 4.5
2017-Nov-12 17:00N 51°52' E 005°57'2 4.7
2017-Nov-12 16:30N 51°52' E 005°53'2 4.0
2017-Nov-12 15:59N 51°52' E 005°50'3 5.7
2017-Nov-12 15:31N 51°53' E 005°46'3 5.8
2017-Nov-12 15:00N 51°54' E 005°41'3 5.8
2017-Nov-12 14:27N 51°54' E 005°36'3 5.7
2017-Nov-12 13:59N 51°54' E 005°32'3 5.8
2017-Nov-12 13:31N 51°53' E 005°27'3 5.8
2017-Nov-12 13:00N 51°51' E 005°25'3 6.2
2017-Nov-12 12:30N 51°48' E 005°22'3 5.2
2017-Nov-12 12:00N 51°49' E 005°18'3 6.4
2017-Nov-12 11:30N 51°49' E 005°13'3 6.6
2017-Nov-12 11:00N 51°49' E 005°08'3 6.2
2017-Nov-12 10:30N 51°49' E 005°03'4 7.4
2017-Nov-12 10:00N 51°50' E 004°57'4 8.1
2017-Nov-12 09:30N 51°49' E 004°50'4 8.3
2017-Nov-12 09:00N 51°49' E 004°44'3 6.3
2017-Nov-12 08:30N 51°51' E 004°39'4 7.9
2017-Nov-12 08:01N 51°54' E 004°35'4 7.2
2017-Nov-12 07:31N 51°55' E 004°29'1 2.6
2017-Nov-12 07:00N 51°54' E 004°28'0 0.0
2017-Nov-12 06:30N 51°54' E 004°28'0 0.0
2017-Nov-12 06:00N 51°54' E 004°28'0 0.0
2017-Nov-12 05:30N 51°54' E 004°28'0 0.0
2017-Nov-12 05:00N 51°54' E 004°28'0 0.0
2017-Nov-12 04:30N 51°54' E 004°28'0 0.0
2017-Nov-12 04:00N 51°54' E 004°28'0 0.0
2017-Nov-12 03:30N 51°54' E 004°28'0 0.0
2017-Nov-12 03:00N 51°54' E 004°28'0 0.0
2017-Nov-12 02:30N 51°54' E 004°28'0 0.0
2017-Nov-12 02:00N 51°54' E 004°28'0 0.0
2017-Nov-12 01:30N 51°54' E 004°28'3 5.2
2017-Nov-12 01:00N 51°54' E 004°23'4 7.2
2017-Nov-12 00:30N 51°54' E 004°18'3 6.4
2017-Nov-12 00:00N 51°56' E 004°13'4 7.4
2017-Nov-11 23:30N 51°58' E 004°09'4 8.1
2017-Nov-11 23:00N 51°59' E 004°02'4 8.0
2017-Nov-11 22:30N 52°00' E 003°56'4 8.7
2017-Nov-11 22:00N 52°01' E 003°49'82 9.2
2017-Nov-11 13:06N 52°52' E 002°04'410.3
2017-Nov-11 12:43N 52°54' E 001°58'210.5
2017-Nov-11 12:30N 52°55' E 001°55'510.4
2017-Nov-11 12:00N 52°58' E 001°47'510.2
2017-Nov-11 11:30N 53°00' E 001°40'5 9.6
2017-Nov-11 11:00N 53°02' E 001°33'5 9.2
2017-Nov-11 10:30N 53°05' E 001°27'4 8.9
2017-Nov-11 10:00N 53°08' E 001°21'4 8.8
2017-Nov-11 09:30N 53°11' E 001°16'53 8.0
2017-Nov-11 02:53N 53°36' W 000°03'411.2
2017-Nov-11 02:30N 53°38' W 000°09'611.2
2017-Nov-11 02:00N 53°43' W 000°14'510.3
2017-Nov-11 01:30N 53°42' W 000°23'  

Dump ship's entire track history